sensor_id;sensor_type;location;lat;lon;timestamp;P1;durP1;ratioP1;P2;durP2;ratioP2
27269;SDS011;14769;56.934;24.176;2022-10-31T00:00:01;17.20;;;7.43;;
27269;SDS011;14769;56.934;24.176;2022-10-31T00:01:09;18.10;;;8.48;;
27269;SDS011;14769;56.934;24.176;2022-10-31T00:02:29;29.27;;;9.07;;
27269;SDS011;14769;56.934;24.176;2022-10-31T00:03:31;21.30;;;8.57;;
27269;SDS011;14769;56.934;24.176;2022-10-31T00:04:33;23.52;;;9.65;;
27269;SDS011;14769;56.934;24.176;2022-10-31T00:05:34;27.75;;;11.23;;
27269;SDS011;14769;56.934;24.176;2022-10-31T00:06:36;28.15;;;11.88;;
27269;SDS011;14769;56.934;24.176;2022-10-31T00:07:38;27.20;;;11.30;;
27269;SDS011;14769;56.934;24.176;2022-10-31T00:08:40;22.30;;;10.63;;
27269;SDS011;14769;56.934;24.176;2022-10-31T00:09:42;27.35;;;11.23;;
27269;SDS011;14769;56.934;24.176;2022-10-31T00:10:44;28.27;;;12.35;;
27269;SDS011;14769;56.934;24.176;2022-10-31T00:11:47;30.95;;;12.80;;
27269;SDS011;14769;56.934;24.176;2022-10-31T00:12:48;30.45;;;12.73;;
27269;SDS011;14769;56.934;24.176;2022-10-31T00:13:50;25.48;;;12.07;;
27269;SDS011;14769;56.934;24.176;2022-10-31T00:14:53;29.92;;;12.00;;
27269;SDS011;14769;56.934;24.176;2022-10-31T00:15:55;26.38;;;12.13;;
27269;SDS011;14769;56.934;24.176;2022-10-31T00:16:56;26.95;;;11.45;;
27269;SDS011;14769;56.934;24.176;2022-10-31T00:18:00;24.77;;;11.95;;
27269;SDS011;14769;56.934;24.176;2022-10-31T00:19:03;28.55;;;11.07;;
27269;SDS011;14769;56.934;24.176;2022-10-31T00:20:07;32.85;;;11.70;;
27269;SDS011;14769;56.934;24.176;2022-10-31T00:21:09;23.15;;;11.20;;
27269;SDS011;14769;56.934;24.176;2022-10-31T00:22:11;27.58;;;11.52;;
27269;SDS011;14769;56.934;24.176;2022-10-31T00:23:13;29.15;;;11.40;;
27269;SDS011;14769;56.934;24.176;2022-10-31T00:24:16;28.27;;;10.80;;
27269;SDS011;14769;56.934;24.176;2022-10-31T00:25:18;22.70;;;10.35;;
27269;SDS011;14769;56.934;24.176;2022-10-31T00:26:21;22.15;;;10.90;;
27269;SDS011;14769;56.934;24.176;2022-10-31T00:27:23;22.67;;;10.50;;
27269;SDS011;14769;56.934;24.176;2022-10-31T00:28:25;24.95;;;11.55;;
27269;SDS011;14769;56.934;24.176;2022-10-31T00:29:27;21.67;;;10.20;;
27269;SDS011;14769;56.934;24.176;2022-10-31T00:30:29;24.17;;;11.02;;
27269;SDS011;14769;56.934;24.176;2022-10-31T00:31:31;24.30;;;10.93;;
27269;SDS011;14769;56.934;24.176;2022-10-31T00:32:33;25.80;;;10.52;;
27269;SDS011;14769;56.934;24.176;2022-10-31T00:33:36;24.98;;;10.40;;
27269;SDS011;14769;56.934;24.176;2022-10-31T00:34:39;25.27;;;10.68;;
27269;SDS011;14769;56.934;24.176;2022-10-31T00:35:41;26.50;;;10.13;;
27269;SDS011;14769;56.934;24.176;2022-10-31T00:36:43;25.95;;;10.18;;
27269;SDS011;14769;56.934;24.176;2022-10-31T00:37:45;23.95;;;9.32;;
27269;SDS011;14769;56.934;24.176;2022-10-31T00:38:47;25.55;;;10.02;;
27269;SDS011;14769;56.934;24.176;2022-10-31T00:39:49;27.70;;;10.35;;
27269;SDS011;14769;56.934;24.176;2022-10-31T00:40:51;25.02;;;9.35;;
27269;SDS011;14769;56.934;24.176;2022-10-31T00:41:53;26.52;;;9.73;;
27269;SDS011;14769;56.934;24.176;2022-10-31T00:42:55;23.98;;;8.95;;
27269;SDS011;14769;56.934;24.176;2022-10-31T00:43:58;26.15;;;9.95;;
27269;SDS011;14769;56.934;24.176;2022-10-31T00:44:59;22.20;;;8.85;;
27269;SDS011;14769;56.934;24.176;2022-10-31T00:46:01;21.42;;;8.48;;
27269;SDS011;14769;56.934;24.176;2022-10-31T00:47:03;21.27;;;9.13;;
27269;SDS011;14769;56.934;24.176;2022-10-31T00:48:05;26.35;;;9.77;;
27269;SDS011;14769;56.934;24.176;2022-10-31T00:49:07;22.77;;;9.23;;
27269;SDS011;14769;56.934;24.176;2022-10-31T00:50:09;22.45;;;8.55;;
27269;SDS011;14769;56.934;24.176;2022-10-31T00:51:12;23.33;;;8.98;;
27269;SDS011;14769;56.934;24.176;2022-10-31T00:52:14;22.20;;;8.02;;
27269;SDS011;14769;56.934;24.176;2022-10-31T00:53:15;17.60;;;7.38;;
27269;SDS011;14769;56.934;24.176;2022-10-31T00:54:18;18.35;;;7.65;;
27269;SDS011;14769;56.934;24.176;2022-10-31T00:55:19;17.85;;;6.78;;
27269;SDS011;14769;56.934;24.176;2022-10-31T00:56:22;18.73;;;8.18;;
27269;SDS011;14769;56.934;24.176;2022-10-31T00:57:24;22.55;;;7.60;;
27269;SDS011;14769;56.934;24.176;2022-10-31T00:58:26;19.83;;;7.28;;
27269;SDS011;14769;56.934;24.176;2022-10-31T00:59:29;22.45;;;7.78;;
27269;SDS011;14769;56.934;24.176;2022-10-31T01:00:31;27.55;;;8.32;;
27269;SDS011;14769;56.934;24.176;2022-10-31T01:01:33;19.15;;;6.78;;
27269;SDS011;14769;56.934;24.176;2022-10-31T01:02:35;25.08;;;10.02;;
27269;SDS011;14769;56.934;24.176;2022-10-31T01:03:37;24.02;;;10.75;;
27269;SDS011;14769;56.934;24.176;2022-10-31T01:04:39;30.83;;;12.30;;
27269;SDS011;14769;56.934;24.176;2022-10-31T01:05:41;25.52;;;10.75;;
27269;SDS011;14769;56.934;24.176;2022-10-31T01:06:43;23.88;;;10.73;;
27269;SDS011;14769;56.934;24.176;2022-10-31T01:07:46;22.70;;;10.63;;
27269;SDS011;14769;56.934;24.176;2022-10-31T01:08:48;27.58;;;10.30;;
27269;SDS011;14769;56.934;24.176;2022-10-31T01:09:50;27.85;;;11.82;;
27269;SDS011;14769;56.934;24.176;2022-10-31T01:10:59;27.48;;;10.80;;
27269;SDS011;14769;56.934;24.176;2022-10-31T01:12:10;29.10;;;10.98;;
27269;SDS011;14769;56.934;24.176;2022-10-31T01:13:12;24.17;;;11.27;;
27269;SDS011;14769;56.934;24.176;2022-10-31T01:14:14;28.50;;;10.98;;
27269;SDS011;14769;56.934;24.176;2022-10-31T01:15:17;25.90;;;10.30;;
27269;SDS011;14769;56.934;24.176;2022-10-31T01:16:22;27.05;;;11.57;;
27269;SDS011;14769;56.934;24.176;2022-10-31T01:17:26;26.45;;;9.65;;
27269;SDS011;14769;56.934;24.176;2022-10-31T01:18:28;23.05;;;9.52;;
27269;SDS011;14769;56.934;24.176;2022-10-31T01:19:30;25.38;;;10.00;;
27269;SDS011;14769;56.934;24.176;2022-10-31T01:20:32;24.13;;;9.32;;
27269;SDS011;14769;56.934;24.176;2022-10-31T01:21:34;21.60;;;8.85;;
27269;SDS011;14769;56.934;24.176;2022-10-31T01:22:36;25.10;;;9.43;;
27269;SDS011;14769;56.934;24.176;2022-10-31T01:23:38;24.75;;;9.07;;
27269;SDS011;14769;56.934;24.176;2022-10-31T01:24:40;26.20;;;9.50;;
27269;SDS011;14769;56.934;24.176;2022-10-31T01:25:42;28.67;;;10.23;;
27269;SDS011;14769;56.934;24.176;2022-10-31T01:26:44;25.15;;;10.35;;
27269;SDS011;14769;56.934;24.176;2022-10-31T01:27:46;25.40;;;9.60;;
27269;SDS011;14769;56.934;24.176;2022-10-31T01:28:49;25.73;;;10.30;;
27269;SDS011;14769;56.934;24.176;2022-10-31T01:29:53;23.70;;;11.07;;
27269;SDS011;14769;56.934;24.176;2022-10-31T01:30:54;24.70;;;11.02;;
27269;SDS011;14769;56.934;24.176;2022-10-31T01:31:56;31.60;;;11.27;;
27269;SDS011;14769;56.934;24.176;2022-10-31T01:32:58;22.73;;;10.27;;
27269;SDS011;14769;56.934;24.176;2022-10-31T01:34:00;24.63;;;10.77;;
27269;SDS011;14769;56.934;24.176;2022-10-31T01:35:02;26.75;;;11.43;;
27269;SDS011;14769;56.934;24.176;2022-10-31T01:36:19;29.77;;;11.73;;
27269;SDS011;14769;56.934;24.176;2022-10-31T01:37:23;31.63;;;12.68;;
27269;SDS011;14769;56.934;24.176;2022-10-31T01:38:26;25.80;;;11.77;;
27269;SDS011;14769;56.934;24.176;2022-10-31T01:39:28;29.42;;;11.57;;
27269;SDS011;14769;56.934;24.176;2022-10-31T01:40:30;24.92;;;10.52;;
27269;SDS011;14769;56.934;24.176;2022-10-31T01:41:33;22.63;;;10.88;;
27269;SDS011;14769;56.934;24.176;2022-10-31T01:42:36;28.23;;;10.90;;
27269;SDS011;14769;56.934;24.176;2022-10-31T01:43:49;25.70;;;11.20;;
27269;SDS011;14769;56.934;24.176;2022-10-31T01:44:57;23.20;;;10.00;;
27269;SDS011;14769;56.934;24.176;2022-10-31T01:46:01;23.80;;;10.77;;
27269;SDS011;14769;56.934;24.176;2022-10-31T01:47:07;22.80;;;10.02;;
27269;SDS011;14769;56.934;24.176;2022-10-31T01:48:17;23.30;;;9.63;;
27269;SDS011;14769;56.934;24.176;2022-10-31T01:49:24;26.42;;;10.18;;
27269;SDS011;14769;56.934;24.176;2022-10-31T01:50:35;28.00;;;10.35;;
27269;SDS011;14769;56.934;24.176;2022-10-31T01:51:41;24.13;;;7.78;;
27269;SDS011;14769;56.934;24.176;2022-10-31T01:52:54;16.65;;;6.63;;
27269;SDS011;14769;56.934;24.176;2022-10-31T01:53:58;26.20;;;8.90;;
27269;SDS011;14769;56.934;24.176;2022-10-31T01:55:16;22.73;;;8.57;;
27269;SDS011;14769;56.934;24.176;2022-10-31T01:56:29;22.90;;;8.43;;
27269;SDS011;14769;56.934;24.176;2022-10-31T01:57:34;19.48;;;8.88;;
27269;SDS011;14769;56.934;24.176;2022-10-31T01:58:39;21.67;;;8.20;;
27269;SDS011;14769;56.934;24.176;2022-10-31T01:59:42;18.23;;;5.43;;
27269;SDS011;14769;56.934;24.176;2022-10-31T02:00:50;17.58;;;7.15;;
27269;SDS011;14769;56.934;24.176;2022-10-31T02:02:00;27.45;;;10.02;;
27269;SDS011;14769;56.934;24.176;2022-10-31T02:03:03;21.10;;;7.93;;
27269;SDS011;14769;56.934;24.176;2022-10-31T02:04:05;23.70;;;8.90;;
27269;SDS011;14769;56.934;24.176;2022-10-31T02:05:09;19.83;;;7.25;;
27269;SDS011;14769;56.934;24.176;2022-10-31T02:06:27;30.40;;;11.50;;
27269;SDS011;14769;56.934;24.176;2022-10-31T02:07:45;22.98;;;10.48;;
27269;SDS011;14769;56.934;24.176;2022-10-31T02:08:54;25.02;;;10.30;;
27269;SDS011;14769;56.934;24.176;2022-10-31T02:10:00;23.65;;;10.27;;
27269;SDS011;14769;56.934;24.176;2022-10-31T02:11:03;29.30;;;10.88;;
27269;SDS011;14769;56.934;24.176;2022-10-31T02:12:05;24.60;;;10.68;;
27269;SDS011;14769;56.934;24.176;2022-10-31T02:13:10;24.15;;;10.30;;
27269;SDS011;14769;56.934;24.176;2022-10-31T02:14:14;26.83;;;11.32;;
27269;SDS011;14769;56.934;24.176;2022-10-31T02:15:18;25.85;;;10.27;;
27269;SDS011;14769;56.934;24.176;2022-10-31T02:16:20;25.63;;;9.55;;
27269;SDS011;14769;56.934;24.176;2022-10-31T02:17:22;22.83;;;9.00;;
27269;SDS011;14769;56.934;24.176;2022-10-31T02:18:24;20.67;;;9.23;;
27269;SDS011;14769;56.934;24.176;2022-10-31T02:19:31;22.17;;;9.00;;
27269;SDS011;14769;56.934;24.176;2022-10-31T02:21:07;25.48;;;8.85;;
27269;SDS011;14769;56.934;24.176;2022-10-31T02:30:20;18.15;;;8.25;;
27269;SDS011;14769;56.934;24.176;2022-10-31T02:32:50;23.73;;;9.80;;
27269;SDS011;14769;56.934;24.176;2022-10-31T02:33:57;23.88;;;9.88;;
27269;SDS011;14769;56.934;24.176;2022-10-31T02:36:35;26.30;;;10.00;;
27269;SDS011;14769;56.934;24.176;2022-10-31T02:39:18;22.00;;;9.75;;
27269;SDS011;14769;56.934;24.176;2022-10-31T02:40:26;24.45;;;10.20;;
27269;SDS011;14769;56.934;24.176;2022-10-31T02:45:32;42.17;;;13.65;;
27269;SDS011;14769;56.934;24.176;2022-10-31T02:46:59;28.48;;;9.40;;
27269;SDS011;14769;56.934;24.176;2022-10-31T02:48:10;34.60;;;9.30;;
27269;SDS011;14769;56.934;24.176;2022-10-31T02:49:22;22.67;;;7.68;;
27269;SDS011;14769;56.934;24.176;2022-10-31T02:50:32;34.38;;;11.02;;
27269;SDS011;14769;56.934;24.176;2022-10-31T02:51:39;32.72;;;12.00;;
27269;SDS011;14769;56.934;24.176;2022-10-31T02:52:41;39.10;;;11.27;;
27269;SDS011;14769;56.934;24.176;2022-10-31T02:53:42;24.40;;;9.02;;
27269;SDS011;14769;56.934;24.176;2022-10-31T02:54:45;29.63;;;11.00;;
27269;SDS011;14769;56.934;24.176;2022-10-31T02:55:50;30.25;;;10.70;;
27269;SDS011;14769;56.934;24.176;2022-10-31T02:57:02;24.02;;;9.52;;
27269;SDS011;14769;56.934;24.176;2022-10-31T02:58:09;28.38;;;10.60;;
27269;SDS011;14769;56.934;24.176;2022-10-31T02:59:15;26.42;;;9.68;;
27269;SDS011;14769;56.934;24.176;2022-10-31T03:00:18;32.60;;;12.25;;
27269;SDS011;14769;56.934;24.176;2022-10-31T03:02:40;35.13;;;12.95;;
27269;SDS011;14769;56.934;24.176;2022-10-31T03:06:24;39.78;;;12.93;;
27269;SDS011;14769;56.934;24.176;2022-10-31T03:09:11;36.35;;;14.23;;
27269;SDS011;14769;56.934;24.176;2022-10-31T03:11:34;29.42;;;11.43;;
27269;SDS011;14769;56.934;24.176;2022-10-31T03:12:54;32.20;;;12.65;;
27269;SDS011;14769;56.934;24.176;2022-10-31T03:14:43;27.33;;;9.82;;
27269;SDS011;14769;56.934;24.176;2022-10-31T03:15:44;26.20;;;9.80;;
27269;SDS011;14769;56.934;24.176;2022-10-31T03:16:50;24.90;;;10.20;;
27269;SDS011;14769;56.934;24.176;2022-10-31T03:18:03;25.67;;;9.60;;
27269;SDS011;14769;56.934;24.176;2022-10-31T03:19:10;18.02;;;8.10;;
27269;SDS011;14769;56.934;24.176;2022-10-31T03:20:19;21.30;;;8.50;;
27269;SDS011;14769;56.934;24.176;2022-10-31T03:21:28;16.73;;;7.53;;
27269;SDS011;14769;56.934;24.176;2022-10-31T03:22:37;18.83;;;7.28;;
27269;SDS011;14769;56.934;24.176;2022-10-31T03:23:43;21.00;;;7.78;;
27269;SDS011;14769;56.934;24.176;2022-10-31T03:24:47;19.08;;;7.43;;
27269;SDS011;14769;56.934;24.176;2022-10-31T03:25:52;16.45;;;7.70;;
27269;SDS011;14769;56.934;24.176;2022-10-31T03:26:56;15.65;;;7.72;;
27269;SDS011;14769;56.934;24.176;2022-10-31T03:28:00;21.55;;;8.85;;
27269;SDS011;14769;56.934;24.176;2022-10-31T03:29:06;22.83;;;7.95;;
27269;SDS011;14769;56.934;24.176;2022-10-31T03:30:11;16.35;;;7.47;;
27269;SDS011;14769;56.934;24.176;2022-10-31T03:31:16;20.48;;;8.13;;
27269;SDS011;14769;56.934;24.176;2022-10-31T03:32:27;15.35;;;7.80;;
27269;SDS011;14769;56.934;24.176;2022-10-31T03:33:38;16.38;;;7.38;;
27269;SDS011;14769;56.934;24.176;2022-10-31T03:34:41;18.10;;;6.78;;
27269;SDS011;14769;56.934;24.176;2022-10-31T03:35:46;15.15;;;7.85;;
27269;SDS011;14769;56.934;24.176;2022-10-31T03:36:53;21.05;;;7.00;;
27269;SDS011;14769;56.934;24.176;2022-10-31T03:37:57;17.48;;;7.88;;
27269;SDS011;14769;56.934;24.176;2022-10-31T03:39:08;16.83;;;8.30;;
27269;SDS011;14769;56.934;24.176;2022-10-31T03:40:14;20.00;;;8.38;;
27269;SDS011;14769;56.934;24.176;2022-10-31T03:41:21;17.77;;;8.25;;
27269;SDS011;14769;56.934;24.176;2022-10-31T03:42:30;15.40;;;8.10;;
27269;SDS011;14769;56.934;24.176;2022-10-31T03:43:36;26.98;;;9.77;;
27269;SDS011;14769;56.934;24.176;2022-10-31T03:44:43;22.67;;;8.85;;
27269;SDS011;14769;56.934;24.176;2022-10-31T03:45:56;27.75;;;10.80;;
27269;SDS011;14769;56.934;24.176;2022-10-31T03:46:58;26.48;;;10.10;;
27269;SDS011;14769;56.934;24.176;2022-10-31T03:48:01;24.27;;;9.35;;
27269;SDS011;14769;56.934;24.176;2022-10-31T03:49:03;22.17;;;8.85;;
27269;SDS011;14769;56.934;24.176;2022-10-31T03:50:06;24.50;;;8.80;;
27269;SDS011;14769;56.934;24.176;2022-10-31T03:51:19;23.90;;;9.43;;
27269;SDS011;14769;56.934;24.176;2022-10-31T03:54:02;16.63;;;8.32;;
27269;SDS011;14769;56.934;24.176;2022-10-31T03:55:19;27.65;;;9.68;;
27269;SDS011;14769;56.934;24.176;2022-10-31T03:56:53;25.73;;;8.90;;
27269;SDS011;14769;56.934;24.176;2022-10-31T03:58:09;20.70;;;8.90;;
27269;SDS011;14769;56.934;24.176;2022-10-31T04:00:57;19.17;;;8.07;;
27269;SDS011;14769;56.934;24.176;2022-10-31T04:02:03;20.67;;;8.43;;
27269;SDS011;14769;56.934;24.176;2022-10-31T04:03:09;20.02;;;9.73;;
27269;SDS011;14769;56.934;24.176;2022-10-31T04:04:17;20.85;;;9.85;;
27269;SDS011;14769;56.934;24.176;2022-10-31T04:05:21;26.00;;;9.32;;
27269;SDS011;14769;56.934;24.176;2022-10-31T04:06:23;22.92;;;9.60;;
27269;SDS011;14769;56.934;24.176;2022-10-31T04:07:28;22.42;;;10.13;;
27269;SDS011;14769;56.934;24.176;2022-10-31T04:08:33;25.00;;;11.57;;
27269;SDS011;14769;56.934;24.176;2022-10-31T04:09:48;27.88;;;12.80;;
27269;SDS011;14769;56.934;24.176;2022-10-31T04:10:52;33.00;;;12.60;;
27269;SDS011;14769;56.934;24.176;2022-10-31T04:11:56;29.48;;;12.35;;
27269;SDS011;14769;56.934;24.176;2022-10-31T04:13:03;31.85;;;13.57;;
27269;SDS011;14769;56.934;24.176;2022-10-31T04:14:13;34.63;;;13.20;;
27269;SDS011;14769;56.934;24.176;2022-10-31T04:15:15;34.53;;;13.30;;
27269;SDS011;14769;56.934;24.176;2022-10-31T04:16:17;36.67;;;14.45;;
27269;SDS011;14769;56.934;24.176;2022-10-31T04:17:20;31.65;;;12.20;;
27269;SDS011;14769;56.934;24.176;2022-10-31T04:18:24;33.20;;;13.45;;
27269;SDS011;14769;56.934;24.176;2022-10-31T04:19:27;33.50;;;15.50;;
27269;SDS011;14769;56.934;24.176;2022-10-31T04:20:30;45.13;;;16.38;;
27269;SDS011;14769;56.934;24.176;2022-10-31T04:21:41;37.95;;;15.75;;
27269;SDS011;14769;56.934;24.176;2022-10-31T04:22:45;31.25;;;14.07;;
27269;SDS011;14769;56.934;24.176;2022-10-31T04:23:47;28.83;;;13.98;;
27269;SDS011;14769;56.934;24.176;2022-10-31T04:24:50;33.95;;;14.13;;
27269;SDS011;14769;56.934;24.176;2022-10-31T04:25:52;35.05;;;14.98;;
27269;SDS011;14769;56.934;24.176;2022-10-31T04:26:54;38.45;;;14.88;;
27269;SDS011;14769;56.934;24.176;2022-10-31T04:27:56;35.30;;;14.65;;
27269;SDS011;14769;56.934;24.176;2022-10-31T04:28:59;37.38;;;15.15;;
27269;SDS011;14769;56.934;24.176;2022-10-31T04:30:01;33.53;;;14.88;;
27269;SDS011;14769;56.934;24.176;2022-10-31T04:31:04;35.58;;;14.65;;
27269;SDS011;14769;56.934;24.176;2022-10-31T04:32:06;38.40;;;15.30;;
27269;SDS011;14769;56.934;24.176;2022-10-31T04:33:07;44.97;;;15.90;;
27269;SDS011;14769;56.934;24.176;2022-10-31T04:34:09;46.50;;;17.75;;
27269;SDS011;14769;56.934;24.176;2022-10-31T04:35:11;41.60;;;18.17;;
27269;SDS011;14769;56.934;24.176;2022-10-31T04:36:13;59.85;;;19.05;;
27269;SDS011;14769;56.934;24.176;2022-10-31T04:37:15;46.33;;;18.30;;
27269;SDS011;14769;56.934;24.176;2022-10-31T04:38:17;44.92;;;17.35;;
27269;SDS011;14769;56.934;24.176;2022-10-31T04:39:19;53.58;;;20.55;;
27269;SDS011;14769;56.934;24.176;2022-10-31T04:40:26;49.72;;;17.58;;
27269;SDS011;14769;56.934;24.176;2022-10-31T04:41:28;52.22;;;18.15;;
27269;SDS011;14769;56.934;24.176;2022-10-31T04:42:30;52.55;;;20.08;;
27269;SDS011;14769;56.934;24.176;2022-10-31T04:43:32;46.83;;;20.10;;
27269;SDS011;14769;56.934;24.176;2022-10-31T04:44:35;45.97;;;18.92;;
27269;SDS011;14769;56.934;24.176;2022-10-31T04:45:37;50.03;;;19.15;;
27269;SDS011;14769;56.934;24.176;2022-10-31T04:46:39;50.22;;;18.77;;
27269;SDS011;14769;56.934;24.176;2022-10-31T04:47:41;48.72;;;17.50;;
27269;SDS011;14769;56.934;24.176;2022-10-31T04:48:43;48.55;;;18.17;;
27269;SDS011;14769;56.934;24.176;2022-10-31T04:49:45;47.13;;;17.88;;
27269;SDS011;14769;56.934;24.176;2022-10-31T04:50:47;52.78;;;18.50;;
27269;SDS011;14769;56.934;24.176;2022-10-31T04:51:48;54.13;;;18.55;;
27269;SDS011;14769;56.934;24.176;2022-10-31T04:52:50;42.35;;;15.43;;
27269;SDS011;14769;56.934;24.176;2022-10-31T04:53:52;44.67;;;17.98;;
27269;SDS011;14769;56.934;24.176;2022-10-31T04:54:54;41.45;;;17.60;;
27269;SDS011;14769;56.934;24.176;2022-10-31T04:55:59;45.70;;;17.67;;
27269;SDS011;14769;56.934;24.176;2022-10-31T04:57:02;49.20;;;18.17;;
27269;SDS011;14769;56.934;24.176;2022-10-31T04:58:04;45.97;;;17.23;;
27269;SDS011;14769;56.934;24.176;2022-10-31T04:59:06;40.45;;;16.48;;
27269;SDS011;14769;56.934;24.176;2022-10-31T05:00:09;33.40;;;14.63;;
27269;SDS011;14769;56.934;24.176;2022-10-31T05:01:12;44.45;;;15.88;;
27269;SDS011;14769;56.934;24.176;2022-10-31T05:02:14;43.42;;;16.33;;
27269;SDS011;14769;56.934;24.176;2022-10-31T05:03:16;41.90;;;17.45;;
27269;SDS011;14769;56.934;24.176;2022-10-31T05:04:18;42.45;;;17.23;;
27269;SDS011;14769;56.934;24.176;2022-10-31T05:05:21;38.10;;;16.05;;
27269;SDS011;14769;56.934;24.176;2022-10-31T05:06:25;45.40;;;14.73;;
27269;SDS011;14769;56.934;24.176;2022-10-31T05:07:27;39.65;;;15.88;;
27269;SDS011;14769;56.934;24.176;2022-10-31T05:08:29;39.85;;;14.70;;
27269;SDS011;14769;56.934;24.176;2022-10-31T05:09:33;41.97;;;15.27;;
27269;SDS011;14769;56.934;24.176;2022-10-31T05:10:34;28.17;;;13.40;;
27269;SDS011;14769;56.934;24.176;2022-10-31T05:11:37;31.73;;;14.07;;
27269;SDS011;14769;56.934;24.176;2022-10-31T05:12:45;35.85;;;14.15;;
27269;SDS011;14769;56.934;24.176;2022-10-31T05:13:49;41.33;;;18.13;;
27269;SDS011;14769;56.934;24.176;2022-10-31T05:14:51;34.47;;;15.02;;
27269;SDS011;14769;56.934;24.176;2022-10-31T05:15:53;36.88;;;14.80;;
27269;SDS011;14769;56.934;24.176;2022-10-31T05:16:55;37.08;;;15.48;;
27269;SDS011;14769;56.934;24.176;2022-10-31T05:17:57;33.03;;;15.10;;
27269;SDS011;14769;56.934;24.176;2022-10-31T05:18:59;28.10;;;12.80;;
27269;SDS011;14769;56.934;24.176;2022-10-31T05:20:01;34.88;;;16.42;;
27269;SDS011;14769;56.934;24.176;2022-10-31T05:21:03;29.80;;;14.27;;
27269;SDS011;14769;56.934;24.176;2022-10-31T05:22:05;24.05;;;14.10;;
27269;SDS011;14769;56.934;24.176;2022-10-31T05:23:07;40.47;;;16.65;;
27269;SDS011;14769;56.934;24.176;2022-10-31T05:24:09;34.20;;;16.02;;
27269;SDS011;14769;56.934;24.176;2022-10-31T05:25:11;34.38;;;14.50;;
27269;SDS011;14769;56.934;24.176;2022-10-31T05:26:14;33.38;;;14.93;;
27269;SDS011;14769;56.934;24.176;2022-10-31T05:27:15;32.42;;;14.40;;
27269;SDS011;14769;56.934;24.176;2022-10-31T05:28:18;37.70;;;14.68;;
27269;SDS011;14769;56.934;24.176;2022-10-31T05:29:20;27.02;;;12.02;;
27269;SDS011;14769;56.934;24.176;2022-10-31T05:30:26;26.70;;;12.57;;
27269;SDS011;14769;56.934;24.176;2022-10-31T05:31:29;25.15;;;12.10;;
27269;SDS011;14769;56.934;24.176;2022-10-31T05:32:37;33.17;;;12.95;;
27269;SDS011;14769;56.934;24.176;2022-10-31T05:33:42;25.25;;;11.38;;
27269;SDS011;14769;56.934;24.176;2022-10-31T05:34:44;30.23;;;11.77;;
27269;SDS011;14769;56.934;24.176;2022-10-31T05:35:46;33.53;;;13.60;;
27269;SDS011;14769;56.934;24.176;2022-10-31T05:36:48;34.63;;;11.70;;
27269;SDS011;14769;56.934;24.176;2022-10-31T05:37:50;31.05;;;11.48;;
27269;SDS011;14769;56.934;24.176;2022-10-31T05:38:52;26.20;;;11.40;;
27269;SDS011;14769;56.934;24.176;2022-10-31T05:39:54;32.70;;;12.50;;
27269;SDS011;14769;56.934;24.176;2022-10-31T05:40:56;34.25;;;14.50;;
27269;SDS011;14769;56.934;24.176;2022-10-31T05:41:59;29.48;;;13.48;;
27269;SDS011;14769;56.934;24.176;2022-10-31T05:43:01;34.75;;;13.52;;
27269;SDS011;14769;56.934;24.176;2022-10-31T05:44:04;28.25;;;11.82;;
27269;SDS011;14769;56.934;24.176;2022-10-31T05:45:07;35.60;;;14.38;;
27269;SDS011;14769;56.934;24.176;2022-10-31T05:46:16;32.47;;;14.32;;
27269;SDS011;14769;56.934;24.176;2022-10-31T05:47:18;26.95;;;12.73;;
27269;SDS011;14769;56.934;24.176;2022-10-31T05:48:20;29.15;;;12.95;;
27269;SDS011;14769;56.934;24.176;2022-10-31T05:49:23;25.65;;;13.35;;
27269;SDS011;14769;56.934;24.176;2022-10-31T05:50:25;26.92;;;12.45;;
27269;SDS011;14769;56.934;24.176;2022-10-31T05:51:28;31.48;;;12.57;;
27269;SDS011;14769;56.934;24.176;2022-10-31T05:52:30;27.83;;;12.70;;
27269;SDS011;14769;56.934;24.176;2022-10-31T05:53:32;30.77;;;13.60;;
27269;SDS011;14769;56.934;24.176;2022-10-31T05:54:33;30.80;;;13.82;;
27269;SDS011;14769;56.934;24.176;2022-10-31T05:55:35;32.70;;;14.05;;
27269;SDS011;14769;56.934;24.176;2022-10-31T05:56:37;34.53;;;14.13;;
27269;SDS011;14769;56.934;24.176;2022-10-31T05:57:39;33.45;;;15.05;;
27269;SDS011;14769;56.934;24.176;2022-10-31T05:58:41;32.08;;;14.73;;
27269;SDS011;14769;56.934;24.176;2022-10-31T05:59:43;36.28;;;13.55;;
27269;SDS011;14769;56.934;24.176;2022-10-31T06:00:44;36.10;;;15.00;;
27269;SDS011;14769;56.934;24.176;2022-10-31T06:01:46;38.40;;;13.93;;
27269;SDS011;14769;56.934;24.176;2022-10-31T06:02:48;31.13;;;14.27;;
27269;SDS011;14769;56.934;24.176;2022-10-31T06:03:50;31.90;;;13.73;;
27269;SDS011;14769;56.934;24.176;2022-10-31T06:04:52;35.13;;;15.38;;
27269;SDS011;14769;56.934;24.176;2022-10-31T06:05:54;31.00;;;13.35;;
27269;SDS011;14769;56.934;24.176;2022-10-31T06:06:56;33.03;;;13.10;;
27269;SDS011;14769;56.934;24.176;2022-10-31T06:07:58;31.90;;;12.23;;
27269;SDS011;14769;56.934;24.176;2022-10-31T06:09:01;22.30;;;13.35;;
27269;SDS011;14769;56.934;24.176;2022-10-31T06:10:03;29.88;;;12.75;;
27269;SDS011;14769;56.934;24.176;2022-10-31T06:11:07;35.67;;;13.50;;
27269;SDS011;14769;56.934;24.176;2022-10-31T06:12:09;26.60;;;13.40;;
27269;SDS011;14769;56.934;24.176;2022-10-31T06:13:10;32.30;;;13.18;;
27269;SDS011;14769;56.934;24.176;2022-10-31T06:14:12;27.30;;;13.73;;
27269;SDS011;14769;56.934;24.176;2022-10-31T06:15:15;35.20;;;15.25;;
27269;SDS011;14769;56.934;24.176;2022-10-31T06:16:24;29.83;;;13.40;;
27269;SDS011;14769;56.934;24.176;2022-10-31T06:17:25;35.28;;;14.30;;
27269;SDS011;14769;56.934;24.176;2022-10-31T06:18:27;30.45;;;14.23;;
27269;SDS011;14769;56.934;24.176;2022-10-31T06:19:29;30.60;;;13.77;;
27269;SDS011;14769;56.934;24.176;2022-10-31T06:20:31;27.50;;;11.88;;
27269;SDS011;14769;56.934;24.176;2022-10-31T06:21:34;24.20;;;11.50;;
27269;SDS011;14769;56.934;24.176;2022-10-31T06:22:36;22.67;;;10.73;;
27269;SDS011;14769;56.934;24.176;2022-10-31T06:23:38;24.35;;;11.73;;
27269;SDS011;14769;56.934;24.176;2022-10-31T06:24:40;25.08;;;12.43;;
27269;SDS011;14769;56.934;24.176;2022-10-31T06:25:42;20.48;;;10.30;;
27269;SDS011;14769;56.934;24.176;2022-10-31T06:26:44;24.17;;;10.20;;
27269;SDS011;14769;56.934;24.176;2022-10-31T06:27:46;21.50;;;10.23;;
27269;SDS011;14769;56.934;24.176;2022-10-31T06:28:48;23.58;;;10.63;;
27269;SDS011;14769;56.934;24.176;2022-10-31T06:29:50;25.98;;;12.05;;
27269;SDS011;14769;56.934;24.176;2022-10-31T06:30:52;26.52;;;12.85;;
27269;SDS011;14769;56.934;24.176;2022-10-31T06:31:54;28.33;;;13.77;;
27269;SDS011;14769;56.934;24.176;2022-10-31T06:33:01;30.05;;;13.63;;
27269;SDS011;14769;56.934;24.176;2022-10-31T06:34:04;34.95;;;15.13;;
27269;SDS011;14769;56.934;24.176;2022-10-31T06:35:07;37.00;;;16.10;;
27269;SDS011;14769;56.934;24.176;2022-10-31T06:36:09;36.28;;;16.92;;
27269;SDS011;14769;56.934;24.176;2022-10-31T06:37:11;37.60;;;15.10;;
27269;SDS011;14769;56.934;24.176;2022-10-31T06:38:14;29.17;;;13.93;;
27269;SDS011;14769;56.934;24.176;2022-10-31T06:39:16;27.67;;;14.75;;